Time;durP1;ratioP1;P1;durP2;ratioP2;P2;SDS_P1;SDS_P2;PMS_P1;PMS_P2;Temp;Humidity;BMP_temperature;BMP_pressure;BME280_temperature;BME280_humidity;BME280_pressure;Samples;Min_cycle;Max_cycle;Signal;HPM_P1;HPM_P2
2024/04/01 00:01:46;;;;;;;40.80;28.40;;;;;;;;;;5075725;28;20444;-72
2024/04/01 00:04:13;;;;;;;41.43;29.70;;;;;;;;;;5073014;28;20488;-72
2024/04/01 00:06:38;;;;;;;43.67;30.93;;;;;;;;;;5077146;28;20535;-73
2024/04/01 00:09:05;;;;;;;42.17;31.13;;;;;;;;;;5076998;28;20463;-72
2024/04/01 00:11:30;;;;;;;37.40;31.87;;;;;;;;;;5074677;28;20217;-73
2024/04/01 00:13:57;;;;;;;44.50;32.73;;;;;;;;;;5070862;28;20444;-72
2024/04/01 00:16:22;;;;;;;49.73;34.33;;;;;;;;;;5074717;28;20209;-72
2024/04/01 00:18:50;;;;;;;40.00;31.57;;;;;;;;;;5074927;28;20455;-72
2024/04/01 00:21:16;;;;;;;46.20;33.53;;;;;;;;;;5072187;28;20260;-72
2024/04/01 00:23:43;;;;;;;45.80;33.00;;;;;;;;;;5072492;28;20449;-72
2024/04/01 00:26:08;;;;;;;42.10;30.37;;;;;;;;;;5075219;28;20273;-71
2024/04/01 00:28:35;;;;;;;45.80;33.07;;;;;;;;;;5075028;28;20475;-72
2024/04/01 00:31:00;;;;;;;49.03;32.90;;;;;;;;;;5065775;28;20241;-72
2024/04/01 00:33:26;;;;;;;52.73;31.80;;;;;;;;;;5072188;28;20440;-71
2024/04/01 00:35:53;;;;;;;50.27;33.27;;;;;;;;;;5074421;28;20206;-73
2024/04/01 00:38:20;;;;;;;50.60;33.53;;;;;;;;;;5069132;28;20464;-72
2024/04/01 00:40:45;;;;;;;46.53;35.10;;;;;;;;;;5074577;28;20464;-72
2024/04/01 00:43:11;;;;;;;43.47;34.27;;;;;;;;;;5075195;28;20473;-72
2024/04/01 00:45:38;;;;;;;42.77;33.93;;;;;;;;;;5073315;28;20226;-72
2024/04/01 00:48:06;;;;;;;38.03;32.47;;;;;;;;;;5076804;28;20452;-72
2024/04/01 00:50:31;;;;;;;45.27;34.20;;;;;;;;;;5065530;28;21016;-72
2024/04/01 00:53:00;;;;;;;42.07;33.27;;;;;;;;;;5074986;28;20478;-71
2024/04/01 00:55:26;;;;;;;49.60;34.23;;;;;;;;;;5074203;28;20236;-72
2024/04/01 00:57:53;;;;;;;40.17;33.73;;;;;;;;;;5074684;28;20448;-72
2024/04/01 01:00:18;;;;;;;44.43;32.67;;;;;;;;;;5075549;28;20245;-72
2024/04/01 01:02:45;;;;;;;44.83;32.40;;;;;;;;;;5076232;28;20449;-71
2024/04/01 01:05:15;;;;;;;41.73;30.33;;;;;;;;;;5075885;28;20253;-73
2024/04/01 01:07:42;;;;;;;42.60;30.63;;;;;;;;;;5074967;28;21532;-73
2024/04/01 01:10:10;;;;;;;41.40;30.40;;;;;;;;;;5075336;28;20507;-72
2024/04/01 01:12:37;;;;;;;43.17;32.30;;;;;;;;;;5072146;28;20455;-72
2024/04/01 01:15:02;;;;;;;39.53;29.30;;;;;;;;;;5069702;28;20459;-72
2024/04/01 01:17:31;;;;;;;39.23;30.57;;;;;;;;;;5077372;28;20451;-72
2024/04/01 01:19:57;;;;;;;32.80;25.87;;;;;;;;;;5074773;28;20244;-72
2024/04/01 01:22:32;;;;;;;33.23;27.30;;;;;;;;;;5077456;28;20449;-72
2024/04/01 01:24:58;;;;;;;38.03;26.03;;;;;;;;;;5073262;28;20237;-72
2024/04/01 01:27:24;;;;;;;30.43;23.50;;;;;;;;;;5076380;28;20451;-72
2024/04/01 01:29:50;;;;;;;36.53;24.53;;;;;;;;;;5079775;28;20214;-72
2024/04/01 01:32:16;;;;;;;41.47;25.90;;;;;;;;;;5079452;28;20524;-72
2024/04/01 01:34:42;;;;;;;35.10;25.60;;;;;;;;;;5076895;28;20205;-72
2024/04/01 01:37:09;;;;;;;35.07;24.63;;;;;;;;;;5079708;28;20972;-72
2024/04/01 01:39:36;;;;;;;33.33;24.67;;;;;;;;;;5075847;28;20242;-73
2024/04/01 01:42:02;;;;;;;28.03;20.80;;;;;;;;;;5078132;28;20824;-72
2024/04/01 01:44:27;;;;;;;26.00;18.30;;;;;;;;;;5080875;28;20495;-72
2024/04/01 01:46:54;;;;;;;27.10;18.00;;;;;;;;;;5074642;28;20985;-72
2024/04/01 01:49:19;;;;;;;17.33;11.40;;;;;;;;;;5078824;28;20233;-73
2024/04/01 01:51:47;;;;;;;13.70;9.87;;;;;;;;;;5077928;28;20449;-71
2024/04/01 01:54:13;;;;;;;15.27;12.00;;;;;;;;;;5080053;28;20632;-71
2024/04/01 01:56:41;;;;;;;14.23;10.20;;;;;;;;;;5079577;28;20452;-71
2024/04/01 01:59:07;;;;;;;15.50;13.37;;;;;;;;;;5076031;28;20591;-72
2024/04/01 02:01:34;;;;;;;14.60;11.47;;;;;;;;;;5073041;28;20464;-71
2024/04/01 02:04:00;;;;;;;18.00;12.27;;;;;;;;;;5070073;28;20509;-71
2024/04/01 02:06:26;;;;;;;11.43;9.53;;;;;;;;;;5075500;28;20992;-71
2024/04/01 02:08:52;;;;;;;13.83;10.40;;;;;;;;;;5075048;28;20300;-71
2024/04/01 02:11:18;;;;;;;12.37;9.77;;;;;;;;;;5071918;28;20772;-70
2024/04/01 02:13:45;;;;;;;11.70;10.13;;;;;;;;;;5081940;28;20209;-71
2024/04/01 02:16:11;;;;;;;14.93;10.40;;;;;;;;;;5076925;28;20511;-70
2024/04/01 02:18:37;;;;;;;11.13;8.67;;;;;;;;;;5077926;28;20537;-72
2024/04/01 02:21:04;;;;;;;8.80;8.00;;;;;;;;;;5076054;28;20957;-71
2024/04/01 02:23:31;;;;;;;11.53;7.93;;;;;;;;;;5075063;28;20221;-71
2024/04/01 02:25:59;;;;;;;10.93;7.90;;;;;;;;;;5070349;28;20500;-71
2024/04/01 02:28:25;;;;;;;7.33;6.63;;;;;;;;;;5080592;28;20487;-71
2024/04/01 02:30:53;;;;;;;14.57;6.80;;;;;;;;;;5077011;28;20452;-71
2024/04/01 02:33:18;;;;;;;6.57;5.97;;;;;;;;;;5077406;28;20694;-72
2024/04/01 02:35:45;;;;;;;7.33;5.77;;;;;;;;;;5077824;28;20447;-71
2024/04/01 02:38:10;;;;;;;6.07;5.60;;;;;;;;;;5076573;28;20235;-72
2024/04/01 02:40:37;;;;;;;6.27;5.33;;;;;;;;;;5072477;28;20464;-72
2024/04/01 02:43:03;;;;;;;5.93;5.33;;;;;;;;;;5074215;28;20236;-73
2024/04/01 02:45:29;;;;;;;6.67;5.50;;;;;;;;;;5074182;28;20480;-73
2024/04/01 02:47:56;;;;;;;7.80;7.00;;;;;;;;;;5077083;28;20510;-73
2024/04/01 02:50:23;;;;;;;17.10;10.90;;;;;;;;;;5078413;28;20875;-73
2024/04/01 02:52:48;;;;;;;21.73;15.53;;;;;;;;;;5078455;28;20444;-72
2024/04/01 02:55:15;;;;;;;18.70;12.30;;;;;;;;;;5076271;28;21002;-71
2024/04/01 02:57:40;;;;;;;23.60;18.17;;;;;;;;;;5076057;28;20453;-72
2024/04/01 03:00:15;;;;;;;26.63;21.17;;;;;;;;;;5076499;28;20444;-72
2024/04/01 03:02:41;;;;;;;29.37;22.80;;;;;;;;;;5072945;28;20325;-71
2024/04/01 03:05:09;;;;;;;29.40;23.60;;;;;;;;;;5076028;28;20519;-72
2024/04/01 03:07:34;;;;;;;28.17;20.70;;;;;;;;;;5072917;28;20304;-72
2024/04/01 03:10:01;;;;;;;26.83;20.67;;;;;;;;;;5078867;28;20495;-71
2024/04/01 03:12:26;;;;;;;32.20;24.57;;;;;;;;;;5074838;28;20205;-72
2024/04/01 03:14:53;;;;;;;29.57;22.77;;;;;;;;;;5073813;28;20440;-72
2024/04/01 03:17:19;;;;;;;34.63;23.70;;;;;;;;;;5074641;28;20214;-73
2024/04/01 03:19:45;;;;;;;38.53;25.30;;;;;;;;;;5076757;28;20436;-72
2024/04/01 03:22:12;;;;;;;40.17;26.77;;;;;;;;;;5078238;28;20312;-73
2024/04/01 03:24:39;;;;;;;32.73;24.33;;;;;;;;;;5074828;28;20848;-72
2024/04/01 03:27:04;;;;;;;34.67;26.20;;;;;;;;;;5076327;28;20448;-72
2024/04/01 03:29:31;;;;;;;37.77;26.43;;;;;;;;;;5068317;28;20531;-72
2024/04/01 03:31:56;;;;;;;30.23;24.80;;;;;;;;;;5075272;28;20805;-73
2024/04/01 03:34:23;;;;;;;34.67;27.00;;;;;;;;;;5074168;28;20961;-73
2024/04/01 03:36:52;;;;;;;24.23;19.00;;;;;;;;;;5078160;28;20692;-72
2024/04/01 03:39:20;;;;;;;24.33;17.93;;;;;;;;;;5074396;28;20444;-72
2024/04/01 03:41:47;;;;;;;16.60;10.77;;;;;;;;;;5076851;28;20456;-72
2024/04/01 03:44:13;;;;;;;15.87;11.83;;;;;;;;;;5078021;28;20459;-73
2024/04/01 03:46:39;;;;;;;14.57;10.87;;;;;;;;;;5070259;28;20516;-72
2024/04/01 03:49:05;;;;;;;18.30;13.33;;;;;;;;;;5072915;28;20456;-70
2024/04/01 03:51:31;;;;;;;23.33;17.20;;;;;;;;;;5074826;28;20202;-72
2024/04/01 03:53:57;;;;;;;14.67;12.50;;;;;;;;;;5071821;28;20473;-73
2024/04/01 03:56:24;;;;;;;17.93;14.17;;;;;;;;;;5074269;28;20241;-73
2024/04/01 03:58:50;;;;;;;26.07;18.83;;;;;;;;;;5077241;28;20452;-72
2024/04/01 04:01:16;;;;;;;26.77;20.83;;;;;;;;;;5069219;28;21020;-73
2024/04/01 04:03:42;;;;;;;27.17;21.73;;;;;;;;;;5075099;28;20436;-72
2024/04/01 04:06:11;;;;;;;34.63;22.43;;;;;;;;;;5075346;28;20670;-72
2024/04/01 04:08:37;;;;;;;25.93;22.27;;;;;;;;;;5076709;28;20454;-71
2024/04/01 04:11:07;;;;;;;32.20;22.97;;;;;;;;;;5075663;28;20948;-71
2024/04/01 04:13:35;;;;;;;35.30;24.37;;;;;;;;;;5072722;28;20467;-70
2024/04/01 04:16:00;;;;;;;34.53;25.10;;;;;;;;;;5072418;28;20484;-72
2024/04/01 04:18:27;;;;;;;28.13;22.73;;;;;;;;;;5075638;28;20527;-71
2024/04/01 04:20:54;;;;;;;29.50;21.70;;;;;;;;;;5078030;28;20225;-72
2024/04/01 04:23:21;;;;;;;28.13;20.60;;;;;;;;;;5075133;28;20440;-71
2024/04/01 04:25:46;;;;;;;25.23;18.67;;;;;;;;;;5084971;28;20483;-72
2024/04/01 04:28:13;;;;;;;24.60;18.90;;;;;;;;;;5075581;28;20452;-71
2024/04/01 04:30:40;;;;;;;32.37;21.60;;;;;;;;;;5076385;28;20271;-72
2024/04/01 04:33:06;;;;;;;23.43;18.60;;;;;;;;;;5076672;28;21021;-71
2024/04/01 04:35:32;;;;;;;21.67;16.20;;;;;;;;;;5073785;28;21038;-71
2024/04/01 04:37:58;;;;;;;25.00;19.07;;;;;;;;;;5076757;28;20440;-71
2024/04/01 04:40:24;;;;;;;30.73;19.10;;;;;;;;;;5075184;28;20228;-71
2024/04/01 04:42:51;;;;;;;21.50;16.30;;;;;;;;;;5076701;28;20440;-72
2024/04/01 04:45:17;;;;;;;22.83;17.20;;;;;;;;;;5074658;28;20558;-72
2024/04/01 04:47:45;;;;;;;21.53;17.70;;;;;;;;;;5072855;28;20452;-71
2024/04/01 04:50:12;;;;;;;26.40;18.63;;;;;;;;;;5071444;28;20463;-72
2024/04/01 04:52:37;;;;;;;27.20;18.27;;;;;;;;;;5070135;28;21027;-73
2024/04/01 04:55:05;;;;;;;22.33;17.77;;;;;;;;;;5075284;28;20949;-72
2024/04/01 04:57:30;;;;;;;23.20;18.80;;;;;;;;;;5074478;28;20297;-73
2024/04/01 04:59:57;;;;;;;23.67;18.53;;;;;;;;;;5075084;28;20884;-73
2024/04/01 05:02:22;;;;;;;21.13;18.57;;;;;;;;;;5078115;28;20229;-72
2024/04/01 05:04:50;;;;;;;20.53;18.10;;;;;;;;;;5078863;28;20459;-72
2024/04/01 05:07:16;;;;;;;17.90;15.97;;;;;;;;;;5074761;28;20209;-73
2024/04/01 05:09:43;;;;;;;21.67;17.27;;;;;;;;;;5086659;28;20459;-72
2024/04/01 05:12:08;;;;;;;19.57;16.60;;;;;;;;;;5078962;28;20535;-72
2024/04/01 05:14:35;;;;;;;20.30;16.10;;;;;;;;;;5077060;28;20486;-70
2024/04/01 05:17:01;;;;;;;25.03;17.23;;;;;;;;;;5078961;28;20216;-70
2024/04/01 05:19:27;;;;;;;25.40;19.17;;;;;;;;;;5073830;28;20440;-71
2024/04/01 05:21:54;;;;;;;23.57;17.00;;;;;;;;;;5079848;28;20225;-71
2024/04/01 05:24:20;;;;;;;23.37;17.57;;;;;;;;;;5079125;28;20521;-71
2024/04/01 05:26:46;;;;;;;29.13;20.50;;;;;;;;;;5073336;28;20560;-71
2024/04/01 05:29:12;;;;;;;21.17;17.20;;;;;;;;;;5077551;28;20820;-72
2024/04/01 05:31:37;;;;;;;27.50;20.67;;;;;;;;;;5075613;28;20217;-72
2024/04/01 05:34:04;;;;;;;29.40;22.60;;;;;;;;;;5073190;28;20956;-72
2024/04/01 05:36:31;;;;;;;29.70;24.20;;;;;;;;;;5075321;28;20263;-71
2024/04/01 05:38:59;;;;;;;30.73;24.00;;;;;;;;;;5079372;28;20450;-71
2024/04/01 05:41:25;;;;;;;32.27;23.37;;;;;;;;;;5078090;28;20452;-73
2024/04/01 05:43:51;;;;;;;24.90;19.80;;;;;;;;;;5076859;28;20444;-72
2024/04/01 05:46:16;;;;;;;25.90;19.83;;;;;;;;;;5077422;28;20226;-71
2024/04/01 05:48:43;;;;;;;28.73;20.20;;;;;;;;;;5069188;28;20505;-72
2024/04/01 05:51:09;;;;;;;26.93;21.23;;;;;;;;;;5079713;28;20209;-72
2024/04/01 05:53:36;;;;;;;27.03;21.97;;;;;;;;;;5074005;28;20508;-72
2024/04/01 05:56:04;;;;;;;37.13;24.73;;;;;;;;;;5076640;28;20210;-71
2024/04/01 05:58:30;;;;;;;29.43;25.50;;;;;;;;;;5077963;28;20577;-72
2024/04/01 06:00:56;;;;;;;32.20;27.33;;;;;;;;;;5078208;28;20759;-73
2024/04/01 06:03:23;;;;;;;32.27;24.67;;;;;;;;;;5077775;28;20868;-73
2024/04/01 06:05:48;;;;;;;30.60;26.30;;;;;;;;;;5082524;28;20514;-71
2024/04/01 06:08:15;;;;;;;31.83;24.47;;;;;;;;;;5070614;28;20451;-72
2024/04/01 06:10:40;;;;;;;39.47;27.97;;;;;;;;;;5077969;28;20217;-72
2024/04/01 06:13:08;;;;;;;31.20;26.37;;;;;;;;;;5073210;28;20964;-71
2024/04/01 06:15:33;;;;;;;33.90;27.70;;;;;;;;;;5075316;28;20264;-72
2024/04/01 06:18:00;;;;;;;30.93;24.50;;;;;;;;;;5078391;28;20448;-71
2024/04/01 06:20:26;;;;;;;34.73;26.47;;;;;;;;;;5074135;28;20270;-71
2024/04/01 06:22:52;;;;;;;29.00;24.70;;;;;;;;;;5068868;28;20451;-72
2024/04/01 06:25:18;;;;;;;32.20;24.70;;;;;;;;;;5076366;28;20234;-71
2024/04/01 06:27:44;;;;;;;27.37;21.60;;;;;;;;;;5075221;28;20903;-73
2024/04/01 06:30:11;;;;;;;30.07;23.80;;;;;;;;;;5070661;28;20234;-70
2024/04/01 06:32:39;;;;;;;29.13;25.80;;;;;;;;;;5073666;28;21600;-72
2024/04/01 06:35:05;;;;;;;29.70;23.40;;;;;;;;;;5075430;28;20452;-72
2024/04/01 06:37:31;;;;;;;25.47;21.50;;;;;;;;;;5073925;28;20858;-71
2024/04/01 06:39:58;;;;;;;26.77;19.03;;;;;;;;;;5075721;28;20206;-72
2024/04/01 06:42:25;;;;;;;20.40;17.10;;;;;;;;;;5079454;28;20483;-72
2024/04/01 06:44:50;;;;;;;19.43;15.57;;;;;;;;;;5076920;28;20476;-72
2024/04/01 06:47:18;;;;;;;18.30;13.30;;;;;;;;;;5076911;28;20491;-72
2024/04/01 06:49:43;;;;;;;15.17;11.90;;;;;;;;;;5078181;28;20389;-73
2024/04/01 06:52:10;;;;;;;11.77;9.67;;;;;;;;;;5073901;28;20789;-72
2024/04/01 06:54:35;;;;;;;11.67;9.33;;;;;;;;;;5072701;28;20244;-73
2024/04/01 06:57:02;;;;;;;11.10;9.20;;;;;;;;;;5072899;28;20827;-72
2024/04/01 06:59:28;;;;;;;11.50;9.60;;;;;;;;;;5069119;28;20706;-73
2024/04/01 07:01:54;;;;;;;10.90;9.17;;;;;;;;;;5075852;28;20515;-72
2024/04/01 07:04:21;;;;;;;10.60;8.73;;;;;;;;;;5076892;28;20212;-72
2024/04/01 07:06:48;;;;;;;12.83;9.00;;;;;;;;;;5073729;28;20494;-73
2024/04/01 07:09:13;;;;;;;8.00;7.30;;;;;;;;;;5079263;28;20479;-74
2024/04/01 07:11:40;;;;;;;9.50;8.50;;;;;;;;;;5079778;28;20442;-72
2024/04/01 07:14:05;;;;;;;14.17;10.67;;;;;;;;;;5076013;28;20209;-72
2024/04/01 07:16:32;;;;;;;12.43;9.17;;;;;;;;;;5072934;28;20478;-72
2024/04/01 07:18:57;;;;;;;11.53;8.77;;;;;;;;;;5078649;28;20229;-72
2024/04/01 07:21:26;;;;;;;9.83;6.80;;;;;;;;;;5077955;28;20486;-71
2024/04/01 07:23:52;;;;;;;9.63;6.40;;;;;;;;;;5079582;28;20201;-72
2024/04/01 07:26:18;;;;;;;8.40;7.40;;;;;;;;;;5077494;28;20543;-73
2024/04/01 07:28:45;;;;;;;8.50;6.90;;;;;;;;;;5077817;28;20206;-72
2024/04/01 07:31:12;;;;;;;9.10;7.57;;;;;;;;;;5074807;28;20460;-72
2024/04/01 07:33:37;;;;;;;7.97;7.27;;;;;;;;;;5072958;28;20459;-72
2024/04/01 07:36:04;;;;;;;10.77;7.63;;;;;;;;;;5078304;28;20479;-72
2024/04/01 07:38:31;;;;;;;7.60;6.90;;;;;;;;;;5076911;28;20241;-73
2024/04/01 07:40:57;;;;;;;7.80;7.10;;;;;;;;;;5075350;28;20460;-73
2024/04/01 07:43:24;;;;;;;12.57;7.33;;;;;;;;;;5077342;28;20456;-73
2024/04/01 07:45:51;;;;;;;7.77;6.97;;;;;;;;;;5069300;28;20481;-74
2024/04/01 07:48:17;;;;;;;10.33;7.50;;;;;;;;;;5074566;28;20471;-73
2024/04/01 07:50:43;;;;;;;9.27;7.53;;;;;;;;;;5069061;28;20444;-71
2024/04/01 07:53:09;;;;;;;11.07;7.10;;;;;;;;;;5070528;28;20213;-72
2024/04/01 07:55:36;;;;;;;10.63;7.73;;;;;;;;;;5081460;28;20451;-72
2024/04/01 07:58:02;;;;;;;9.50;7.90;;;;;;;;;;5075286;28;20210;-72
2024/04/01 08:00:28;;;;;;;9.40;6.87;;;;;;;;;;5074353;28;20463;-73
2024/04/01 08:02:54;;;;;;;9.87;7.27;;;;;;;;;;5077528;28;20681;-71
2024/04/01 08:05:20;;;;;;;8.00;7.30;;;;;;;;;;5078040;28;20447;-72
2024/04/01 08:07:46;;;;;;;10.43;8.83;;;;;;;;;;5082793;28;20725;-73
2024/04/01 08:10:12;;;;;;;9.60;8.63;;;;;;;;;;5075776;28;20456;-73
2024/04/01 08:12:39;;;;;;;8.13;7.43;;;;;;;;;;5070243;28;20205;-71
2024/04/01 08:15:06;;;;;;;10.70;8.93;;;;;;;;;;5074565;28;20452;-73
2024/04/01 08:17:32;;;;;;;11.57;8.10;;;;;;;;;;5068849;28;20456;-73
2024/04/01 08:19:58;;;;;;;10.17;8.57;;;;;;;;;;5079415;28;20549;-71
2024/04/01 08:22:24;;;;;;;10.17;8.60;;;;;;;;;;5074734;28;20675;-72
2024/04/01 08:24:50;;;;;;;8.40;7.60;;;;;;;;;;5077289;28;20482;-72
2024/04/01 08:27:16;;;;;;;11.20;9.40;;;;;;;;;;5076931;28;20253;-71
2024/04/01 08:29:44;;;;;;;10.33;9.10;;;;;;;;;;5072166;28;20448;-71
2024/04/01 08:32:10;;;;;;;11.83;9.53;;;;;;;;;;5072857;28;20474;-71
2024/04/01 08:34:36;;;;;;;10.60;9.47;;;;;;;;;;5084340;28;20451;-72
2024/04/01 08:37:02;;;;;;;12.33;9.70;;;;;;;;;;5076862;28;20989;-71
2024/04/01 08:39:28;;;;;;;10.97;9.87;;;;;;;;;;5067767;28;20456;-71
2024/04/01 08:41:54;;;;;;;12.50;10.30;;;;;;;;;;5068725;28;20634;-74
2024/04/01 08:44:21;;;;;;;13.30;10.40;;;;;;;;;;5069870;28;20458;-73
2024/04/01 08:46:50;;;;;;;12.30;9.50;;;;;;;;;;5072880;28;20927;-73
2024/04/01 08:49:16;;;;;;;11.37;10.17;;;;;;;;;;5070519;28;20444;-75
2024/04/01 08:51:42;;;;;;;15.43;10.50;;;;;;;;;;5073087;28;20462;-74
2024/04/01 08:54:11;;;;;;;11.80;10.60;;;;;;;;;;5070232;28;20633;-73
2024/04/01 08:56:38;;;;;;;11.90;10.60;;;;;;;;;;5075394;28;20466;-72
2024/04/01 08:59:05;;;;;;;11.23;10.10;;;;;;;;;;5070294;28;20479;-72
2024/04/01 09:01:31;;;;;;;11.17;10.03;;;;;;;;;;5073674;28;20449;-73
2024/04/01 09:03:59;;;;;;;12.20;9.80;;;;;;;;;;5075927;28;20433;-72
2024/04/01 09:06:24;;;;;;;13.97;10.30;;;;;;;;;;5071209;28;20518;-73
2024/04/01 09:08:54;;;;;;;14.20;11.50;;;;;;;;;;5070347;28;20451;-73
2024/04/01 09:11:21;;;;;;;13.03;10.87;;;;;;;;;;5072462;28;20213;-70
2024/04/01 09:13:48;;;;;;;17.37;11.50;;;;;;;;;;5070777;28;20448;-73
2024/04/01 09:16:19;;;;;;;11.40;10.30;;;;;;;;;;5072686;28;20476;-73
2024/04/01 09:18:45;;;;;;;10.80;9.33;;;;;;;;;;5070203;28;20481;-71
2024/04/01 09:21:12;;;;;;;11.40;9.30;;;;;;;;;;5071988;28;20546;-73
2024/04/01 09:23:44;;;;;;;10.90;9.80;;;;;;;;;;5074289;28;20452;-73
2024/04/01 09:26:10;;;;;;;11.70;10.47;;;;;;;;;;5078882;28;20496;-73
2024/04/01 09:28:36;;;;;;;12.77;11.00;;;;;;;;;;5072888;28;20771;-73
2024/04/01 09:31:02;;;;;;;14.80;10.47;;;;;;;;;;5069593;28;20575;-73
2024/04/01 09:33:29;;;;;;;13.63;11.37;;;;;;;;;;5081430;28;20523;-72
2024/04/01 09:35:54;;;;;;;11.60;10.40;;;;;;;;;;5077525;28;20290;-73
2024/04/01 09:38:22;;;;;;;15.00;10.30;;;;;;;;;;5075906;28;20997;-73
2024/04/01 09:40:48;;;;;;;10.43;9.50;;;;;;;;;;5069420;28;20244;-73
2024/04/01 09:43:20;;;;;;;13.97;12.67;;;;;;;;;;5077957;28;20444;-73
2024/04/01 09:45:46;;;;;;;12.00;10.80;;;;;;;;;;5073528;28;20209;-72
2024/04/01 09:48:12;;;;;;;13.37;10.70;;;;;;;;;;5083700;28;20471;-73
2024/04/01 09:50:39;;;;;;;11.50;9.30;;;;;;;;;;5082108;28;20476;-73
2024/04/01 09:53:05;;;;;;;10.53;9.03;;;;;;;;;;5065499;28;20470;-73
2024/04/01 09:55:40;;;;;;;11.10;9.70;;;;;;;;;;5080108;28;20460;-74
2024/04/01 09:58:32;;;;;;;10.27;9.13;;;;;;;;;;5078220;28;20454;-73
2024/04/01 10:01:02;;;;;;;10.40;9.50;;;;;;;;;;5078954;28;20482;-70
2024/04/01 10:03:58;;;;;;;9.87;8.97;;;;;;;;;;5079905;28;20455;-72
2024/04/01 10:06:57;;;;;;;12.10;10.80;;;;;;;;;;5077223;28;20860;-70
2024/04/01 10:09:41;;;;;;;12.80;11.23;;;;;;;;;;5076262;28;20452;-72
2024/04/01 10:12:20;;;;;;;8.87;8.07;;;;;;;;;;5080239;28;20545;-74
2024/04/01 10:15:05;;;;;;;9.53;8.63;;;;;;;;;;5076000;28;20463;-76
2024/04/01 10:17:39;;;;;;;9.17;8.37;;;;;;;;;;5071664;28;20496;-76
2024/04/01 10:20:18;;;;;;;9.13;8.30;;;;;;;;;;5074838;28;20520;-77
2024/04/01 10:23:05;;;;;;;9.43;8.63;;;;;;;;;;5076466;28;20486;-74
2024/04/01 10:25:43;;;;;;;11.53;8.97;;;;;;;;;;5078350;28;20583;-77
2024/04/01 10:28:23;;;;;;;9.40;8.50;;;;;;;;;;5076090;28;20478;-78
2024/04/01 10:30:59;;;;;;;9.10;8.33;;;;;;;;;;5083118;28;20455;-77
2024/04/01 10:33:40;;;;;;;9.73;8.70;;;;;;;;;;5081558;28;20523;-76
2024/04/01 10:36:08;;;;;;;11.07;9.43;;;;;;;;;;5081083;28;20452;-77
2024/04/01 10:38:55;;;;;;;9.37;8.57;;;;;;;;;;5081118;28;20840;-74
2024/04/01 10:41:34;;;;;;;10.40;9.30;;;;;;;;;;5080558;28;20524;-75
2024/04/01 10:44:13;;;;;;;10.50;9.37;;;;;;;;;;5075330;28;20570;-76
2024/04/01 10:46:54;;;;;;;10.30;9.40;;;;;;;;;;5076304;28;20493;-75
2024/04/01 10:49:31;;;;;;;11.90;10.90;;;;;;;;;;5054827;28;20471;-76
2024/04/01 10:52:09;;;;;;;13.40;12.20;;;;;;;;;;5078713;28;20455;-77
2024/04/01 10:54:43;;;;;;;13.23;12.10;;;;;;;;;;5071793;28;20464;-74
2024/04/01 10:57:28;;;;;;;13.40;12.07;;;;;;;;;;5081415;28;20454;-72
2024/04/01 11:00:12;;;;;;;11.80;10.70;;;;;;;;;;5083951;28;20485;-79
2024/04/01 11:02:56;;;;;;;11.70;10.67;;;;;;;;;;5089305;28;20436;-75
2024/04/01 11:05:30;;;;;;;11.63;10.50;;;;;;;;;;5084959;28;20444;-72
2024/04/01 11:08:03;;;;;;;12.80;11.60;;;;;;;;;;5082951;28;20514;-74
2024/04/01 11:10:32;;;;;;;12.83;11.47;;;;;;;;;;5084167;28;20452;-75
2024/04/01 11:13:01;;;;;;;16.90;11.40;;;;;;;;;;5077222;28;20523;-74
2024/04/01 11:15:26;;;;;;;11.90;10.70;;;;;;;;;;5079652;28;20759;-77
2024/04/01 11:17:57;;;;;;;11.43;10.33;;;;;;;;;;5082846;28;20563;-76
2024/04/01 11:20:31;;;;;;;11.50;10.43;;;;;;;;;;5082744;28;20244;-74
2024/04/01 11:23:04;;;;;;;11.90;10.90;;;;;;;;;;5088137;28;20483;-76
2024/04/01 11:25:36;;;;;;;12.67;11.57;;;;;;;;;;5081193;28;20871;-74
2024/04/01 11:28:11;;;;;;;12.30;11.10;;;;;;;;;;5090770;28;20832;-72
2024/04/01 11:30:37;;;;;;;10.73;9.83;;;;;;;;;;5083684;28;20486;-74
2024/04/01 11:33:04;;;;;;;10.53;9.73;;;;;;;;;;5086641;28;20928;-74
2024/04/01 11:35:39;;;;;;;10.17;9.30;;;;;;;;;;5082439;28;20213;-75
2024/04/01 11:38:11;;;;;;;10.30;9.40;;;;;;;;;;5068698;28;21228;-76
2024/04/01 11:40:37;;;;;;;9.03;8.33;;;;;;;;;;5069896;28;20496;-75
2024/04/01 11:43:05;;;;;;;10.93;9.60;;;;;;;;;;5071071;28;20843;-73
2024/04/01 11:45:33;;;;;;;8.90;8.20;;;;;;;;;;5069645;28;20218;-73
2024/04/01 11:48:00;;;;;;;9.17;8.27;;;;;;;;;;5070970;28;20514;-77
2024/04/01 11:50:26;;;;;;;10.53;9.67;;;;;;;;;;5072086;28;20468;-76
2024/04/01 11:53:00;;;;;;;8.90;8.20;;;;;;;;;;5079333;28;20440;-74
2024/04/01 11:55:26;;;;;;;6.37;5.87;;;;;;;;;;5074820;28;20208;-72
2024/04/01 11:57:52;;;;;;;6.00;5.50;;;;;;;;;;5082280;28;20504;-68
2024/04/01 12:00:18;;;;;;;5.63;5.23;;;;;;;;;;5065445;28;20210;-73
2024/04/01 12:02:51;;;;;;;5.30;3.90;;;;;;;;;;5079656;28;20451;-74
2024/04/01 12:05:17;;;;;;;4.13;3.57;;;;;;;;;;5072852;28;20209;-74
2024/04/01 12:07:45;;;;;;;4.97;3.40;;;;;;;;;;5076297;28;20488;-72
2024/04/01 12:10:13;;;;;;;4.30;4.00;;;;;;;;;;5073834;28;20238;-71
2024/04/01 12:12:40;;;;;;;2.93;2.73;;;;;;;;;;5076536;28;20483;-70
2024/04/01 12:15:06;;;;;;;2.93;2.73;;;;;;;;;;5073627;28;20518;-75
2024/04/01 12:17:33;;;;;;;2.67;2.53;;;;;;;;;;5077454;28;20501;-74
2024/04/01 12:19:59;;;;;;;3.27;3.07;;;;;;;;;;5073440;28;20487;-71
2024/04/01 12:22:26;;;;;;;2.97;2.77;;;;;;;;;;5066070;28;20531;-69
2024/04/01 12:24:51;;;;;;;3.43;3.23;;;;;;;;;;5077141;28;20478;-71
2024/04/01 12:27:19;;;;;;;3.63;3.43;;;;;;;;;;5081796;28;20480;-71
2024/04/01 12:29:45;;;;;;;4.30;4.00;;;;;;;;;;5072549;28;20213;-70
2024/04/01 12:32:11;;;;;;;4.20;3.90;;;;;;;;;;5073768;28;20441;-72
2024/04/01 12:34:38;;;;;;;4.57;4.27;;;;;;;;;;5073451;28;20213;-72
2024/04/01 12:37:05;;;;;;;3.70;3.50;;;;;;;;;;5072587;28;20498;-72
2024/04/01 12:39:30;;;;;;;4.50;3.60;;;;;;;;;;5074175;28;20458;-75
2024/04/01 12:41:57;;;;;;;4.00;3.73;;;;;;;;;;5075908;28;20459;-76
2024/04/01 12:44:24;;;;;;;4.33;4.03;;;;;;;;;;5072291;28;20237;-71
2024/04/01 12:46:50;;;;;;;4.50;4.20;;;;;;;;;;5076471;28;20535;-75
2024/04/01 12:49:17;;;;;;;4.40;4.10;;;;;;;;;;5073189;28;20815;-69
2024/04/01 12:51:45;;;;;;;4.33;4.03;;;;;;;;;;5072176;28;20452;-76
2024/04/01 12:54:27;;;;;;;5.00;4.60;;;;;;;;;;5067995;28;20477;-75
2024/04/01 12:57:01;;;;;;;4.90;4.50;;;;;;;;;;5073189;28;20475;-75
2024/04/01 12:59:32;;;;;;;4.93;4.33;;;;;;;;;;5066953;28;20452;-71
2024/04/01 13:02:07;;;;;;;4.60;4.20;;;;;;;;;;5072744;28;20474;-74
2024/04/01 13:04:43;;;;;;;4.20;3.90;;;;;;;;;;5074073;28;20519;-70
2024/04/01 13:07:17;;;;;;;4.00;3.70;;;;;;;;;;5068864;28;20491;-73
2024/04/01 13:09:45;;;;;;;4.80;2.93;;;;;;;;;;5065864;28;20451;-78
2024/04/01 13:12:18;;;;;;;2.97;2.77;;;;;;;;;;5070821;28;20475;-75
2024/04/01 13:14:54;;;;;;;3.03;2.83;;;;;;;;;;5068992;28;20492;-75
2024/04/01 13:17:27;;;;;;;3.27;2.97;;;;;;;;;;5075013;28;21253;-77
2024/04/01 13:19:58;;;;;;;3.60;3.30;;;;;;;;;;5070770;28;20499;-74
2024/04/01 13:22:28;;;;;;;3.50;3.30;;;;;;;;;;5078445;28;20467;-75
2024/04/01 13:24:59;;;;;;;3.30;3.00;;;;;;;;;;5078499;28;21033;-75
2024/04/01 13:27:30;;;;;;;3.67;3.37;;;;;;;;;;5076048;28;20483;-73
2024/04/01 13:30:04;;;;;;;4.87;4.47;;;;;;;;;;5073128;28;20452;-75
2024/04/01 13:32:34;;;;;;;4.43;4.13;;;;;;;;;;5076128;28;20523;-72
2024/04/01 13:35:05;;;;;;;11.20;7.43;;;;;;;;;;5068764;28;20448;-77
2024/04/01 13:37:35;;;;;;;5.20;4.80;;;;;;;;;;5071848;28;20470;-72
2024/04/01 13:40:06;;;;;;;6.90;4.83;;;;;;;;;;5077811;28;20965;-71
2024/04/01 13:42:39;;;;;;;5.07;4.67;;;;;;;;;;5080008;28;20479;-71
2024/04/01 13:45:10;;;;;;;5.40;4.93;;;;;;;;;;5076756;28;20456;-74
2024/04/01 13:47:43;;;;;;;5.00;4.60;;;;;;;;;;5077657;28;21191;-73
2024/04/01 13:50:17;;;;;;;4.70;4.40;;;;;;;;;;5071607;28;20952;-73
2024/04/01 13:52:57;;;;;;;4.43;4.13;;;;;;;;;;5080277;28;20432;-74
2024/04/01 13:55:30;;;;;;;6.50;3.60;;;;;;;;;;5077119;28;20538;-73
2024/04/01 13:58:01;;;;;;;4.07;3.77;;;;;;;;;;5077878;28;20531;-70
2024/04/01 14:00:31;;;;;;;4.63;4.23;;;;;;;;;;5076448;28;20520;-73
2024/04/01 14:03:03;;;;;;;5.00;4.60;;;;;;;;;;5078441;28;20432;-73
2024/04/01 14:05:37;;;;;;;5.43;4.93;;;;;;;;;;5079890;28;20451;-73
2024/04/01 14:08:07;;;;;;;5.83;5.33;;;;;;;;;;5078824;28;20503;-72
2024/04/01 14:10:38;;;;;;;6.00;5.50;;;;;;;;;;5074060;28;21012;-75
2024/04/01 14:13:12;;;;;;;6.07;5.47;;;;;;;;;;5073213;28;20440;-76
2024/04/01 14:15:47;;;;;;;5.80;5.30;;;;;;;;;;5075277;28;20455;-74
2024/04/01 14:18:20;;;;;;;6.80;6.23;;;;;;;;;;5067777;28;20522;-75
2024/04/01 14:20:46;;;;;;;7.50;6.37;;;;;;;;;;5082222;28;20483;-72
2024/04/01 14:23:12;;;;;;;7.00;6.40;;;;;;;;;;5074634;28;20482;-73
2024/04/01 14:25:42;;;;;;;7.83;7.13;;;;;;;;;;5079154;28;20444;-73
2024/04/01 14:28:09;;;;;;;6.90;6.30;;;;;;;;;;5071155;28;20583;-74
2024/04/01 14:30:35;;;;;;;7.20;5.90;;;;;;;;;;5079168;28;20452;-75
2024/04/01 14:33:04;;;;;;;7.37;6.67;;;;;;;;;;5071076;28;20441;-76